Time;durP1;ratioP1;P1;durP2;ratioP2;P2;SDS_P1;SDS_P2;PMS_P1;PMS_P2;Temp;Humidity;BMP_temperature;BMP_pressure;BME280_temperature;BME280_humidity;BME280_pressure;Samples;Min_cycle;Max_cycle;Signal;HPM_P1;HPM_P2
2022/02/26 00:00:30;;;;;;;2.63;0.90;;;4.60;99.90;;;;;;5036270;28;20075;-71
2022/02/26 00:02:56;;;;;;;0.45;0.30;;;4.60;99.90;;;;;;5034907;28;20108;-74
2022/02/26 00:05:21;;;;;;;0.03;0.03;;;4.60;99.90;;;;;;5034837;28;20100;-75
2022/02/26 00:07:47;;;;;;;0.10;0.10;;;4.60;99.90;;;;;;5035376;28;20099;-71
2022/02/26 00:10:13;;;;;;;0.08;0.08;;;4.60;99.90;;;;;;5035420;28;20091;-75
2022/02/26 00:12:39;;;;;;;0.00;0.00;;;4.50;99.90;;;;;;5035068;28;20037;-71
2022/02/26 00:15:05;;;;;;;0.30;0.30;;;4.40;99.90;;;;;;5035435;28;20492;-72
2022/02/26 00:17:31;;;;;;;18.17;1.45;;;4.40;99.90;;;;;;5034812;28;20048;-74
2022/02/26 00:19:56;;;;;;;0.85;0.85;;;4.30;99.90;;;;;;5035323;28;20097;-75
2022/02/26 00:22:22;;;;;;;0.38;0.20;;;4.20;99.90;;;;;;5035445;28;20389;-71
2022/02/26 00:24:48;;;;;;;7.35;2.03;;;4.20;99.90;;;;;;5034705;28;20045;-74
2022/02/26 00:27:13;;;;;;;3.40;1.20;;;4.10;99.90;;;;;;5034880;28;20064;-72
2022/02/26 00:29:40;;;;;;;0.57;0.57;;;4.10;99.90;;;;;;5033627;28;20033;-74
2022/02/26 00:32:06;;;;;;;0.65;0.65;;;4.10;99.90;;;;;;5035098;28;20025;-75
2022/02/26 00:34:32;;;;;;;0.10;0.10;;;4.00;99.90;;;;;;5033964;28;20026;-72
2022/02/26 00:36:58;;;;;;;1.13;1.02;;;4.00;99.90;;;;;;5034505;28;20542;-73
2022/02/26 00:39:23;;;;;;;2.65;0.85;;;4.00;99.90;;;;;;5033951;28;20033;-74
2022/02/26 00:41:49;;;;;;;0.00;0.00;;;4.00;99.90;;;;;;5034356;28;20396;-72
2022/02/26 00:44:15;;;;;;;0.15;0.15;;;3.90;99.90;;;;;;5034186;28;20057;-72
2022/02/26 00:46:40;;;;;;;0.00;0.00;;;3.90;99.90;;;;;;5034878;28;20033;-74
2022/02/26 00:51:51;;;;;;;0.55;0.55;;;3.90;99.90;;;;;;5033646;28;20052;-75
2022/02/26 00:54:17;;;;;;;2.65;1.75;;;3.90;99.90;;;;;;5034077;28;20104;-74
2022/02/26 00:56:42;;;;;;;0.00;0.00;;;3.80;99.90;;;;;;5034174;28;20536;-74
2022/02/26 00:59:09;;;;;;;0.55;0.55;;;3.80;99.90;;;;;;5033985;28;20021;-74
2022/02/26 01:01:38;;;;;;;0.43;0.43;;;3.80;99.90;;;;;;5034450;28;20029;-75
2022/02/26 01:04:05;;;;;;;0.00;0.00;;;3.70;99.90;;;;;;5034382;28;20449;-75
2022/02/26 01:06:31;;;;;;;0.00;0.00;;;3.70;99.90;;;;;;5033559;28;20036;-75
2022/02/26 01:08:56;;;;;;;0.00;0.00;;;3.70;99.90;;;;;;5033386;28;20467;-71
2022/02/26 01:11:22;;;;;;;0.00;0.00;;;3.70;99.90;;;;;;5032742;28;20045;-75
2022/02/26 01:13:47;;;;;;;0.45;0.45;;;3.70;99.90;;;;;;5033978;28;20064;-74
2022/02/26 01:16:13;;;;;;;1.30;0.88;;;3.60;99.90;;;;;;5033044;28;20025;-74
2022/02/26 01:18:39;;;;;;;0.35;0.35;;;3.60;99.90;;;;;;5033414;28;20052;-75
2022/02/26 01:21:04;;;;;;;0.00;0.00;;;3.60;99.90;;;;;;5018353;28;20061;-72
2022/02/26 01:23:30;;;;;;;0.10;0.10;;;3.60;99.90;;;;;;5014134;28;20095;-71
2022/02/26 01:25:56;;;;;;;0.85;0.85;;;3.60;99.90;;;;;;5013514;28;20037;-72
2022/02/26 01:28:21;;;;;;;0.10;0.10;;;3.60;99.90;;;;;;5013861;28;20404;-75
2022/02/26 01:30:47;;;;;;;0.10;0.10;;;3.60;99.90;;;;;;5014010;28;20030;-75
2022/02/26 01:33:13;;;;;;;1.27;1.17;;;3.50;99.90;;;;;;5013942;28;20026;-71
2022/02/26 01:35:39;;;;;;;0.10;0.10;;;3.50;99.90;;;;;;5015596;28;20397;-74
2022/02/26 01:38:05;;;;;;;0.10;0.10;;;3.60;99.90;;;;;;5029889;28;20116;-72
2022/02/26 01:40:30;;;;;;;2.13;1.30;;;3.70;99.90;;;;;;5033612;28;20029;-72
2022/02/26 01:42:56;;;;;;;0.55;0.52;;;3.70;99.90;;;;;;5033468;28;20025;-71
2022/02/26 01:45:24;;;;;;;0.47;0.47;;;3.70;99.90;;;;;;5033536;28;20057;-72
2022/02/26 01:47:49;;;;;;;0.77;0.68;;;3.80;99.90;;;;;;5033670;28;20056;-71
2022/02/26 01:50:16;;;;;;;0.32;0.32;;;3.80;99.90;;;;;;5031970;28;20528;-71
2022/02/26 01:52:42;;;;;;;0.13;0.13;;;3.80;99.90;;;;;;5035962;28;20416;-72
2022/02/26 01:55:09;;;;;;;1.58;1.02;;;3.80;99.90;;;;;;5032983;28;20025;-75
2022/02/26 01:57:35;;;;;;;0.88;0.77;;;3.80;99.90;;;;;;5033425;28;20477;-75
2022/02/26 02:00:04;;;;;;;10.25;1.40;;;3.80;99.90;;;;;;5033411;28;20056;-71
2022/02/26 02:02:29;;;;;;;6.30;0.93;;;3.80;99.90;;;;;;5032907;28;20029;-75
2022/02/26 02:04:55;;;;;;;9.75;1.20;;;3.70;99.90;;;;;;5032577;28;20477;-71
2022/02/26 02:07:21;;;;;;;1.15;1.08;;;3.70;99.90;;;;;;5033254;28;20488;-71
2022/02/26 02:09:46;;;;;;;0.25;0.25;;;3.70;99.90;;;;;;5032198;28;20510;-71
2022/02/26 02:12:12;;;;;;;0.10;0.10;;;3.70;99.90;;;;;;5033036;28;20021;-75
2022/02/26 02:14:38;;;;;;;0.00;0.00;;;3.70;99.90;;;;;;5033059;28;20029;-71
2022/02/26 02:17:04;;;;;;;0.10;0.10;;;3.70;99.90;;;;;;5032770;28;20057;-74
2022/02/26 02:19:30;;;;;;;0.20;0.20;;;3.70;99.90;;;;;;5032409;28;20025;-75
2022/02/26 02:21:55;;;;;;;0.47;0.47;;;3.60;99.90;;;;;;5033348;28;20026;-71
2022/02/26 02:24:21;;;;;;;2.08;1.05;;;3.60;99.90;;;;;;5033383;28;20017;-75
2022/02/26 02:26:48;;;;;;;0.90;0.90;;;3.50;99.90;;;;;;5033308;28;20030;-75
2022/02/26 02:29:14;;;;;;;0.00;0.00;;;3.50;99.90;;;;;;5033149;28;20026;-71
2022/02/26 02:31:39;;;;;;;0.45;0.40;;;3.40;99.90;;;;;;5033178;28;20041;-75
2022/02/26 02:34:05;;;;;;;0.30;0.30;;;3.40;99.90;;;;;;5032953;28;20033;-75
2022/02/26 02:36:40;;;;;;;0.30;0.30;;;3.40;99.90;;;;;;5032825;28;20028;-74
2022/02/26 02:39:09;;;;;;;0.45;0.43;;;3.30;99.90;;;;;;5035047;28;20108;-72
2022/02/26 02:41:34;;;;;;;0.43;0.43;;;3.30;99.90;;;;;;5032243;28;20045;-72
2022/02/26 02:44:00;;;;;;;1.35;0.30;;;3.20;99.90;;;;;;5032905;28;20092;-75
2022/02/26 02:46:26;;;;;;;0.00;0.00;;;3.20;99.90;;;;;;5033140;28;20511;-75
2022/02/26 02:48:52;;;;;;;0.40;0.22;;;3.20;99.90;;;;;;5032441;28;20026;-74
2022/02/26 02:51:18;;;;;;;0.03;0.03;;;3.20;99.90;;;;;;5032217;28;20041;-75
2022/02/26 02:53:44;;;;;;;0.75;0.75;;;3.10;99.90;;;;;;5032341;28;20473;-72
2022/02/26 02:56:10;;;;;;;0.00;0.00;;;3.00;99.90;;;;;;5032822;28;20499;-74
2022/02/26 02:58:35;;;;;;;0.35;0.35;;;3.00;99.90;;;;;;5032834;28;20028;-71
2022/02/26 03:01:01;;;;;;;0.35;0.35;;;2.90;99.90;;;;;;5032560;28;20033;-75
2022/02/26 03:03:27;;;;;;;2.97;2.08;;;2.90;99.90;;;;;;5032681;28;20089;-74
2022/02/26 03:05:53;;;;;;;0.50;0.50;;;2.90;99.90;;;;;;5032745;28;20400;-75
2022/02/26 03:08:23;;;;;;;0.00;0.00;;;2.80;99.90;;;;;;5032040;28;20480;-71
2022/02/26 03:10:49;;;;;;;0.60;0.47;;;2.80;99.90;;;;;;5032356;28;20026;-72
2022/02/26 03:13:20;;;;;;;0.00;0.00;;;2.80;99.90;;;;;;5036615;28;20029;-75
2022/02/26 03:15:47;;;;;;;0.00;0.00;;;2.80;99.90;;;;;;5031701;28;20026;-75
2022/02/26 03:18:12;;;;;;;0.00;0.00;;;2.80;99.90;;;;;;5032408;28;20017;-71
2022/02/26 03:20:38;;;;;;;0.38;0.38;;;2.80;99.90;;;;;;5032037;28;20088;-74
2022/02/26 03:23:04;;;;;;;0.63;0.60;;;2.70;99.90;;;;;;5032284;28;20100;-72
2022/02/26 03:25:29;;;;;;;0.20;0.20;;;2.70;99.90;;;;;;5032599;28;20037;-75
2022/02/26 03:27:55;;;;;;;0.00;0.00;;;2.70;99.90;;;;;;5032505;28;20034;-75
2022/02/26 03:30:21;;;;;;;0.03;0.03;;;2.80;99.90;;;;;;5035155;28;20493;-72
2022/02/26 03:32:47;;;;;;;0.68;0.35;;;2.70;99.90;;;;;;5036021;28;20044;-75
2022/02/26 03:35:13;;;;;;;0.00;0.00;;;2.70;99.90;;;;;;5035819;28;20387;-71
2022/02/26 03:37:39;;;;;;;0.00;0.00;;;2.70;99.90;;;;;;5035593;28;20384;-71
2022/02/26 03:40:05;;;;;;;2.45;0.98;;;2.70;99.90;;;;;;5035775;28;20431;-74
2022/02/26 03:42:31;;;;;;;0.00;0.00;;;2.70;99.90;;;;;;5035874;28;20025;-75
2022/02/26 03:44:57;;;;;;;0.05;0.05;;;2.70;99.90;;;;;;5035594;28;20573;-75
2022/02/26 03:47:22;;;;;;;0.28;0.28;;;2.80;99.90;;;;;;5037498;28;20104;-74
2022/02/26 03:49:48;;;;;;;0.22;0.22;;;2.80;99.90;;;;;;5035439;28;20017;-74
2022/02/26 03:52:15;;;;;;;0.75;0.75;;;2.80;99.90;;;;;;5034442;28;20413;-75
2022/02/26 03:54:41;;;;;;;0.05;0.05;;;2.80;99.90;;;;;;5035356;28;20029;-75
2022/02/26 03:57:07;;;;;;;0.05;0.05;;;2.80;99.90;;;;;;5034569;28;20079;-72
2022/02/26 03:59:33;;;;;;;0.22;0.22;;;2.80;99.90;;;;;;5035942;28;20017;-74
2022/02/26 04:01:58;;;;;;;0.73;0.47;;;2.80;99.90;;;;;;5036184;28;20029;-74
2022/02/26 04:04:24;;;;;;;0.00;0.00;;;2.80;99.90;;;;;;5035553;28;20029;-75
2022/02/26 04:06:50;;;;;;;0.10;0.10;;;2.90;99.90;;;;;;5035425;28;20392;-74
2022/02/26 04:09:17;;;;;;;23.30;1.55;;;2.90;99.90;;;;;;5034757;28;20065;-72
2022/02/26 04:11:43;;;;;;;0.00;0.00;;;2.80;99.90;;;;;;5034487;28;20018;-74
2022/02/26 04:14:08;;;;;;;1.23;0.80;;;2.90;99.90;;;;;;5035443;28;20033;-75
2022/02/26 04:16:34;;;;;;;0.20;0.20;;;2.90;99.90;;;;;;5034689;28;20370;-72
2022/02/26 04:19:00;;;;;;;0.00;0.00;;;2.90;99.90;;;;;;5038474;28;20021;-75
2022/02/26 04:21:26;;;;;;;0.30;0.30;;;2.90;99.90;;;;;;5033859;28;20432;-74
2022/02/26 04:23:54;;;;;;;0.55;0.30;;;2.90;99.90;;;;;;5035149;28;20519;-71
2022/02/26 04:26:19;;;;;;;0.00;0.00;;;2.80;99.90;;;;;;5033628;28;20036;-74
2022/02/26 04:28:45;;;;;;;0.10;0.10;;;2.80;99.90;;;;;;5034383;28;20413;-74
2022/02/26 04:31:11;;;;;;;0.00;0.00;;;2.80;99.90;;;;;;5035294;28;20024;-71
2022/02/26 04:33:37;;;;;;;0.93;0.45;;;2.80;99.90;;;;;;5035103;28;20488;-71
2022/02/26 04:36:02;;;;;;;40.17;2.30;;;2.70;99.90;;;;;;5037613;28;20032;-75
2022/02/26 04:38:29;;;;;;;1.13;1.00;;;2.80;99.90;;;;;;5034416;28;20032;-72
2022/02/26 04:40:58;;;;;;;0.70;0.65;;;2.80;99.90;;;;;;5033401;28;20489;-74
2022/02/26 04:43:24;;;;;;;0.00;0.00;;;2.70;99.90;;;;;;5034813;28;20072;-74
2022/02/26 04:45:50;;;;;;;1.00;0.63;;;2.80;99.90;;;;;;5034716;28;20029;-74
2022/02/26 04:48:15;;;;;;;0.30;0.30;;;2.80;99.90;;;;;;5034550;28;20100;-72
2022/02/26 04:50:41;;;;;;;0.40;0.32;;;2.70;99.90;;;;;;5034084;28;20028;-74
2022/02/26 04:53:07;;;;;;;19.95;1.55;;;2.70;99.90;;;;;;5033282;28;20447;-74
2022/02/26 04:55:36;;;;;;;0.00;0.00;;;2.70;99.90;;;;;;5034223;28;20022;-75
2022/02/26 04:58:02;;;;;;;0.17;0.17;;;2.70;99.90;;;;;;5034255;28;20022;-71
2022/02/26 05:00:27;;;;;;;0.50;0.50;;;2.70;99.90;;;;;;5033671;28;20025;-71
2022/02/26 05:02:53;;;;;;;0.70;0.70;;;2.70;99.90;;;;;;5034369;28;20018;-75
2022/02/26 05:05:19;;;;;;;1.35;0.88;;;2.60;99.90;;;;;;5034321;28;20030;-75
2022/02/26 05:07:47;;;;;;;0.30;0.30;;;2.70;99.90;;;;;;5037760;28;20288;-75
2022/02/26 05:10:13;;;;;;;0.28;0.28;;;2.60;99.90;;;;;;5034027;28;20090;-71
2022/02/26 05:12:39;;;;;;;0.28;0.28;;;2.60;99.90;;;;;;5034279;28;20443;-75
2022/02/26 05:15:05;;;;;;;0.00;0.00;;;2.60;99.90;;;;;;5034047;28;20040;-73
2022/02/26 05:17:31;;;;;;;2.63;0.30;;;2.60;99.90;;;;;;5033873;28;20056;-71
2022/02/26 05:19:57;;;;;;;0.08;0.08;;;2.50;99.90;;;;;;5033888;28;20502;-74
2022/02/26 05:22:22;;;;;;;0.35;0.35;;;2.50;99.90;;;;;;5033792;28;20397;-71
2022/02/26 05:24:48;;;;;;;0.10;0.10;;;2.50;99.90;;;;;;5034641;28;20021;-73
2022/02/26 05:27:14;;;;;;;1.63;0.45;;;2.50;99.90;;;;;;5035201;28;20030;-71
2022/02/26 05:29:39;;;;;;;0.00;0.00;;;2.50;99.90;;;;;;5034226;28;20034;-71
2022/02/26 05:32:06;;;;;;;0.00;0.00;;;2.50;99.90;;;;;;5033997;28;20025;-75
2022/02/26 05:34:31;;;;;;;0.32;0.32;;;2.50;99.90;;;;;;5033673;28;20032;-71
2022/02/26 05:36:57;;;;;;;0.10;0.10;;;2.50;99.90;;;;;;5031792;28;20404;-75
2022/02/26 05:39:23;;;;;;;0.55;0.55;;;2.50;99.90;;;;;;5033503;28;20507;-71
2022/02/26 05:41:48;;;;;;;2.53;1.55;;;2.50;99.90;;;;;;5033508;28;20096;-75
2022/02/26 05:44:14;;;;;;;0.00;0.00;;;2.50;99.90;;;;;;5033168;28;20037;-75
2022/02/26 05:46:39;;;;;;;0.28;0.28;;;2.50;99.90;;;;;;5033698;28;20131;-74
2022/02/26 05:49:05;;;;;;;7.88;1.27;;;2.50;99.90;;;;;;5033229;28;20030;-75
2022/02/26 05:51:31;;;;;;;0.43;0.43;;;2.50;99.90;;;;;;5032885;28;20030;-71
2022/02/26 05:53:56;;;;;;;0.65;0.57;;;2.50;99.90;;;;;;5032140;28;20036;-75
2022/02/26 05:56:22;;;;;;;0.10;0.10;;;2.50;99.90;;;;;;5033168;28;20037;-75
2022/02/26 05:58:48;;;;;;;0.15;0.15;;;2.40;99.90;;;;;;5033825;28;20026;-74
2022/02/26 06:01:13;;;;;;;0.00;0.00;;;2.40;99.90;;;;;;5034505;28;20104;-72
2022/02/26 06:03:39;;;;;;;0.17;0.17;;;2.40;99.90;;;;;;5032973;28;20032;-74
2022/02/26 06:06:05;;;;;;;0.43;0.43;;;2.40;99.90;;;;;;5033499;28;20514;-75
2022/02/26 06:08:30;;;;;;;3.10;1.35;;;2.30;99.90;;;;;;5032894;28;20104;-74
2022/02/26 06:10:56;;;;;;;1.02;0.85;;;2.30;99.90;;;;;;5031156;28;20029;-72
2022/02/26 06:13:22;;;;;;;0.45;0.45;;;2.40;99.90;;;;;;5033186;28;20022;-74
2022/02/26 06:15:48;;;;;;;1.27;1.17;;;2.30;99.90;;;;;;5033611;28;20041;-74
2022/02/26 06:18:17;;;;;;;0.10;0.10;;;2.40;99.90;;;;;;5032744;28;20515;-72
2022/02/26 06:20:42;;;;;;;0.30;0.30;;;2.40;99.90;;;;;;5028726;28;20022;-75
2022/02/26 06:23:08;;;;;;;0.00;0.00;;;2.30;99.90;;;;;;5013271;28;20018;-72
2022/02/26 06:25:34;;;;;;;0.10;0.10;;;2.30;99.90;;;;;;5013572;28;20029;-73
2022/02/26 06:27:59;;;;;;;0.00;0.00;;;2.30;99.90;;;;;;5018975;28;20030;-74
2022/02/26 06:30:26;;;;;;;0.08;0.08;;;2.20;99.90;;;;;;5013595;28;20030;-74
2022/02/26 06:32:52;;;;;;;0.82;0.73;;;2.20;99.90;;;;;;5013089;28;20021;-74
2022/02/26 06:35:18;;;;;;;0.00;0.00;;;2.20;99.90;;;;;;5015011;28;20034;-72
2022/02/26 06:37:44;;;;;;;0.68;0.68;;;2.20;99.90;;;;;;5032847;28;20108;-74
2022/02/26 06:40:10;;;;;;;0.75;0.75;;;2.10;99.90;;;;;;5032820;28;20025;-72
2022/02/26 06:42:36;;;;;;;0.08;0.08;;;2.10;99.90;;;;;;5032970;28;20033;-74
2022/02/26 06:45:02;;;;;;;1.48;1.38;;;2.10;99.90;;;;;;5032386;28;20140;-71
2022/02/26 06:47:28;;;;;;;0.40;0.40;;;2.10;99.90;;;;;;5032493;28;20396;-75
2022/02/26 06:49:54;;;;;;;0.77;0.45;;;2.10;99.90;;;;;;5032848;28;20104;-72
2022/02/26 06:52:19;;;;;;;0.65;0.65;;;2.10;99.90;;;;;;5032569;28;20101;-74
2022/02/26 06:54:45;;;;;;;5.82;0.70;;;2.20;99.90;;;;;;5031634;28;20496;-71
2022/02/26 06:57:11;;;;;;;0.63;0.63;;;2.20;99.90;;;;;;5034226;28;20032;-72
2022/02/26 06:59:36;;;;;;;1.65;1.55;;;2.20;99.90;;;;;;5032702;28;20026;-71
2022/02/26 07:02:02;;;;;;;0.10;0.10;;;2.30;99.90;;;;;;5032767;28;20022;-71
2022/02/26 07:04:29;;;;;;;0.10;0.10;;;2.40;99.90;;;;;;5033983;28;20025;-74
2022/02/26 07:06:54;;;;;;;1.05;0.68;;;2.40;99.90;;;;;;5036721;28;20512;-73
2022/02/26 07:09:23;;;;;;;0.35;0.35;;;2.40;99.90;;;;;;5036050;28;20060;-71
2022/02/26 07:11:49;;;;;;;0.30;0.30;;;2.50;99.90;;;;;;5035701;28;20105;-72
2022/02/26 07:14:16;;;;;;;0.60;0.60;;;2.50;99.90;;;;;;5037747;28;20408;-74
2022/02/26 07:16:42;;;;;;;0.15;0.15;;;2.60;99.90;;;;;;5035872;28;20095;-72
2022/02/26 07:19:08;;;;;;;2.15;1.55;;;2.60;99.90;;;;;;5036147;28;20037;-71
2022/02/26 07:21:35;;;;;;;1.70;1.42;;;2.60;99.90;;;;;;5024316;28;20481;-72
2022/02/26 07:24:01;;;;;;;0.17;0.17;;;2.70;99.90;;;;;;5016257;28;20545;-72
2022/02/26 07:26:29;;;;;;;5.05;1.65;;;2.70;99.90;;;;;;5016885;28;20030;-74
2022/02/26 07:28:55;;;;;;;0.05;0.05;;;2.70;99.90;;;;;;5016213;28;20026;-74
2022/02/26 07:31:21;;;;;;;0.55;0.45;;;2.80;99.90;;;;;;5016388;28;20026;-71
2022/02/26 07:33:47;;;;;;;0.20;0.20;;;2.80;99.90;;;;;;5016492;28;20040;-75
2022/02/26 07:36:14;;;;;;;0.00;0.00;;;2.90;99.90;;;;;;5016828;28;20564;-72
2022/02/26 07:38:40;;;;;;;0.20;0.20;;;2.90;99.90;;;;;;5035772;28;20503;-72
2022/02/26 07:41:07;;;;;;;1.25;1.15;;;3.00;99.90;;;;;;5035772;28;20033;-72
2022/02/26 07:43:34;;;;;;;2.60;1.15;;;3.00;99.90;;;;;;5037156;28;20420;-74
2022/02/26 07:46:00;;;;;;;0.35;0.35;;;3.00;99.90;;;;;;5035833;28;20053;-75
2022/02/26 07:48:25;;;;;;;0.68;0.68;;;3.10;99.90;;;;;;5035626;28;20061;-72
2022/02/26 07:50:51;;;;;;;0.43;0.43;;;3.10;99.90;;;;;;5035835;28;20025;-75
2022/02/26 07:53:17;;;;;;;1.05;0.95;;;3.20;99.90;;;;;;5035697;28;20025;-75
2022/02/26 07:55:43;;;;;;;0.00;0.00;;;3.30;99.90;;;;;;5035118;28;20029;-71
2022/02/26 07:58:08;;;;;;;0.03;0.03;;;3.40;99.90;;;;;;5035351;28;20029;-75
2022/02/26 08:00:34;;;;;;;0.13;0.13;;;3.60;99.90;;;;;;5035446;28;20541;-72
2022/02/26 08:03:03;;;;;;;0.00;0.00;;;3.80;99.90;;;;;;5035297;28;20420;-75
2022/02/26 08:05:29;;;;;;;0.00;0.00;;;5.00;99.90;;;;;;5035503;28;20026;-75
2022/02/26 08:07:55;;;;;;;0.00;0.00;;;7.00;99.90;;;;;;5034201;28;20029;-75
2022/02/26 08:10:22;;;;;;;2.15;0.73;;;6.80;99.90;;;;;;5035256;28;20493;-75
2022/02/26 08:12:51;;;;;;;0.00;0.00;;;6.90;99.90;;;;;;5034796;28;20026;-75
2022/02/26 08:15:23;;;;;;;0.00;0.00;;;7.50;99.90;;;;;;5035125;28;20031;-72
2022/02/26 08:17:49;;;;;;;0.10;0.10;;;6.80;99.90;;;;;;5034977;28;20032;-75
2022/02/26 08:20:19;;;;;;;0.00;0.00;;;7.00;99.90;;;;;;5035106;28;20496;-72
2022/02/26 08:22:46;;;;;;;3.83;0.98;;;7.70;99.90;;;;;;5035286;28;20025;-72
2022/02/26 08:25:13;;;;;;;0.10;0.10;;;7.00;99.90;;;;;;5036081;28;20105;-72
2022/02/26 08:27:39;;;;;;;0.45;0.45;;;6.50;99.90;;;;;;5035185;28;20564;-75
2022/02/26 08:30:07;;;;;;;0.45;0.45;;;6.20;99.90;;;;;;5034628;28;20022;-72
2022/02/26 08:32:33;;;;;;;0.15;0.15;;;6.00;99.90;;;;;;5034763;28;20035;-72
2022/02/26 08:34:59;;;;;;;0.00;0.00;;;5.90;99.90;;;;;;5034222;28;20083;-75
2022/02/26 08:37:24;;;;;;;1.77;0.80;;;6.10;99.90;;;;;;5034903;28;20112;-75
2022/02/26 08:39:50;;;;;;;0.15;0.15;;;6.30;99.90;;;;;;5034546;28;20087;-76
2022/02/26 08:42:18;;;;;;;0.35;0.35;;;7.70;99.90;;;;;;5034771;28;20048;-73
2022/02/26 08:44:44;;;;;;;0.65;0.65;;;10.70;99.90;;;;;;5034843;28;20610;-73
2022/02/26 08:47:10;;;;;;;0.50;0.30;;;12.70;99.90;;;;;;5034907;28;20053;-73
2022/02/26 08:49:35;;;;;;;1.13;0.63;;;13.80;99.90;;;;;;5034285;28;20037;-76
2022/02/26 08:52:02;;;;;;;1.45;0.20;;;14.60;99.90;;;;;;5034386;28;20485;-77
2022/02/26 08:54:28;;;;;;;0.43;0.30;;;14.70;99.90;;;;;;5034013;28;20103;-73
2022/02/26 08:56:57;;;;;;;0.20;0.20;;;14.90;99.90;;;;;;5033496;28;20086;-77
2022/02/26 08:59:23;;;;;;;3.03;0.13;;;15.00;99.60;;;;;;5034364;28;20118;-77
2022/02/26 09:01:48;;;;;;;0.10;0.10;;;14.20;99.90;;;;;;5033184;28;20053;-74
2022/02/26 09:04:14;;;;;;;0.38;0.38;;;12.70;99.90;;;;;;5034666;28;20017;-77
2022/02/26 09:06:40;;;;;;;0.17;0.17;;;11.70;99.90;;;;;;5033797;28;20038;-78
2022/02/26 09:09:09;;;;;;;0.55;0.47;;;11.00;99.90;;;;;;5033743;28;20033;-77
2022/02/26 09:11:39;;;;;;;1.65;1.05;;;10.80;99.90;;;;;;5034108;28;20030;-77
2022/02/26 09:14:05;;;;;;;1.50;0.75;;;10.50;99.90;;;;;;5034022;28;20132;-74
2022/02/26 09:16:31;;;;;;;2.63;0.90;;;10.20;99.90;;;;;;5032359;28;20038;-78
2022/02/26 09:18:57;;;;;;;0.38;0.38;;;10.30;99.90;;;;;;5033648;28;20044;-74
2022/02/26 09:21:24;;;;;;;0.15;0.15;;;10.40;99.90;;;;;;5036745;28;20005;-74
2022/02/26 09:23:50;;;;;;;0.20;0.20;;;10.70;99.90;;;;;;5033721;28;20060;-77
2022/02/26 09:26:15;;;;;;;7.70;0.85;;;10.80;99.90;;;;;;5033863;28;20061;-75
2022/02/26 09:28:41;;;;;;;4.75;1.65;;;11.10;99.90;;;;;;5033754;28;20087;-74
2022/02/26 09:31:09;;;;;;;0.47;0.17;;;12.10;99.90;;;;;;5033698;28;20116;-75
2022/02/26 09:33:35;;;;;;;15.55;1.08;;;13.30;99.90;;;;;;5034001;28;20021;-78
2022/02/26 09:36:02;;;;;;;1.88;1.55;;;13.30;99.90;;;;;;5033764;28;20030;-75
2022/02/26 09:38:29;;;;;;;0.17;0.13;;;12.90;99.90;;;;;;5033281;28;20036;-75
2022/02/26 09:40:56;;;;;;;0.28;0.28;;;12.50;99.90;;;;;;5032889;28;20377;-77
2022/02/26 09:43:23;;;;;;;1.95;1.25;;;12.50;99.90;;;;;;5033702;28;20056;-75
2022/02/26 09:45:50;;;;;;;0.28;0.25;;;13.80;99.90;;;;;;5033683;28;20362;-74
2022/02/26 09:48:16;;;;;;;6.03;1.50;;;14.60;99.40;;;;;;5033445;28;20518;-74
2022/02/26 09:50:41;;;;;;;2.05;0.25;;;14.80;98.10;;;;;;5033317;28;20022;-74
2022/02/26 09:53:11;;;;;;;0.20;0.10;;;14.80;98.50;;;;;;5033127;28;20118;-77
2022/02/26 09:55:38;;;;;;;0.60;0.60;;;14.90;98.30;;;;;;5031779;28;20029;-74
2022/02/26 09:58:04;;;;;;;0.50;0.50;;;14.50;98.60;;;;;;5032706;28;20033;-74
2022/02/26 10:00:30;;;;;;;2.38;1.35;;;14.10;99.30;;;;;;5031899;28;20060;-74
2022/02/26 10:02:57;;;;;;;0.20;0.20;;;13.20;99.90;;;;;;5032965;28;20025;-75
2022/02/26 10:05:22;;;;;;;0.40;0.32;;;12.20;99.90;;;;;;5033263;28;20386;-77
2022/02/26 10:07:52;;;;;;;0.03;0.03;;;11.50;99.90;;;;;;5033191;28;20040;-77
2022/02/26 10:10:20;;;;;;;0.47;0.47;;;11.10;99.90;;;;;;5032969;28;20029;-74
2022/02/26 10:12:55;;;;;;;1.40;1.08;;;10.90;99.90;;;;;;5032495;28;20026;-76
2022/02/26 10:15:20;;;;;;;2.72;1.13;;;10.60;99.90;;;;;;5032471;28;20025;-73
2022/02/26 10:17:56;;;;;;;2.08;0.85;;;10.70;99.90;;;;;;5032847;28;20040;-74
2022/02/26 10:20:23;;;;;;;0.70;0.65;;;10.80;99.90;;;;;;5032992;28;20025;-73
2022/02/26 10:22:54;;;;;;;0.10;0.10;;;10.80;99.90;;;;;;5014083;28;20083;-77
2022/02/26 10:25:23;;;;;;;2.92;0.98;;;10.90;99.90;;;;;;5013269;28;20397;-76
2022/02/26 10:27:54;;;;;;;0.20;0.20;;;11.00;99.90;;;;;;5013288;28;20077;-76
2022/02/26 10:30:31;;;;;;;0.10;0.10;;;11.10;99.90;;;;;;5013289;28;20038;-76
2022/02/26 10:33:10;;;;;;;3.33;1.10;;;11.20;99.90;;;;;;5013209;28;20026;-73
2022/02/26 10:35:54;;;;;;;0.15;0.00;;;11.20;99.90;;;;;;5013333;28;20040;-74
2022/02/26 10:38:27;;;;;;;0.35;0.32;;;11.30;99.90;;;;;;5030139;28;20026;-75
2022/02/26 10:41:04;;;;;;;0.08;0.08;;;11.50;99.90;;;;;;5036930;28;20033;-76
2022/02/26 10:43:50;;;;;;;0.00;0.00;;;11.50;99.90;;;;;;5036723;28;20045;-76
2022/02/26 10:46:28;;;;;;;4.22;0.28;;;11.50;99.90;;;;;;5036670;28;20176;-76
2022/02/26 10:49:01;;;;;;;0.00;0.00;;;11.30;99.00;;;;;;5036639;28;20079;-73
2022/02/26 10:51:31;;;;;;;;;;;11.20;98.60;;;;;;5036641;28;20515;-73
2022/02/26 10:53:58;;;;;;;0.25;0.25;;;11.30;98.30;;;;;;5036345;28;20067;-73
2022/02/26 10:56:50;;;;;;;0.35;0.22;;;11.40;99.50;;;;;;5036539;28;20087;-73
2022/02/26 10:59:34;;;;;;;0.00;0.00;;;11.30;98.10;;;;;;5035901;28;20033;-75
2022/02/26 11:02:11;;;;;;;0.08;0.08;;;11.40;97.70;;;;;;5036439;28;20051;-72
2022/02/26 11:04:38;;;;;;;0.00;0.00;;;11.40;97.10;;;;;;5036924;28;20504;-72
2022/02/26 11:07:05;;;;;;;0.00;0.00;;;11.60;97.40;;;;;;5036626;28;20037;-73
2022/02/26 11:09:30;;;;;;;0.10;0.10;;;11.50;96.50;;;;;;5036302;28;20030;-76
2022/02/26 11:11:58;;;;;;;25.60;0.93;;;11.40;96.20;;;;;;5036613;28;20052;-73
2022/02/26 11:14:30;;;;;;;0.00;0.00;;;11.30;96.40;;;;;;5036514;28;20036;-76
2022/02/26 11:17:00;;;;;;;0.00;0.00;;;11.50;96.60;;;;;;5035657;28;20601;-72
2022/02/26 11:19:27;;;;;;;0.20;0.10;;;11.50;96.30;;;;;;5035989;28;20030;-75
2022/02/26 11:21:53;;;;;;;0.00;0.00;;;11.40;95.50;;;;;;5036394;28;20028;-73
2022/02/26 11:24:19;;;;;;;0.00;0.00;;;11.60;96.40;;;;;;5036374;28;20022;-73
2022/02/26 11:26:46;;;;;;;0.05;0.05;;;11.70;94.60;;;;;;5035528;28;20029;-73
2022/02/26 11:29:13;;;;;;;0.00;0.00;;;11.70;94.50;;;;;;5036035;28;20033;-74
2022/02/26 11:32:05;;;;;;;1.27;0.10;;;11.70;94.00;;;;;;5035572;28;20527;-75
2022/02/26 11:34:35;;;;;;;0.00;0.00;;;11.70;94.30;;;;;;5036461;28;20033;-76
2022/02/26 11:37:13;;;;;;;0.25;0.25;;;11.90;94.60;;;;;;5035910;28;20074;-75
2022/02/26 11:39:51;;;;;;;0.00;0.00;;;11.90;94.90;;;;;;5035665;28;20025;-76
2022/02/26 11:42:23;;;;;;;0.22;0.22;;;12.10;95.80;;;;;;5035909;28;20021;-73
2022/02/26 11:45:03;;;;;;;0.00;0.00;;;12.30;96.20;;;;;;5035582;28;20049;-73
2022/02/26 11:47:38;;;;;;;2.72;0.80;;;12.40;95.40;;;;;;5036092;28;20025;-76
2022/02/26 11:50:18;;;;;;;0.10;0.10;;;12.50;95.10;;;;;;5034943;28;20022;-76
2022/02/26 11:53:01;;;;;;;0.00;0.00;;;12.50;94.90;;;;;;5035863;28;20025;-73
2022/02/26 11:55:41;;;;;;;0.10;0.10;;;12.50;94.00;;;;;;5034625;28;20029;-73
2022/02/26 11:58:21;;;;;;;0.00;0.00;;;12.60;94.00;;;;;;5034754;28;20424;-76
2022/02/26 12:00:52;;;;;;;0.00;0.00;;;12.60;94.50;;;;;;5018677;28;20110;-76
2022/02/26 12:03:38;;;;;;;0.00;0.00;;;12.70;94.10;;;;;;5015579;28;20025;-73
2022/02/26 12:06:13;;;;;;;0.00;0.00;;;12.80;94.00;;;;;;5015579;28;20049;-76
2022/02/26 12:08:40;;;;;;;1.90;0.80;;;12.80;93.30;;;;;;5015148;28;20109;-74
2022/02/26 12:11:08;;;;;;;0.00;0.00;;;12.80;93.10;;;;;;5015712;28;20558;-73
2022/02/26 12:13:37;;;;;;;0.22;0.22;;;12.80;93.00;;;;;;5015720;28;20493;-73
2022/02/26 12:16:21;;;;;;;0.03;0.00;;;12.80;92.80;;;;;;5015269;28;20374;-76
2022/02/26 12:18:53;;;;;;;0.00;0.00;;;12.90;93.10;;;;;;5015248;28;20448;-73
2022/02/26 12:21:19;;;;;;;0.22;0.22;;;13.00;92.50;;;;;;5016926;28;20022;-75
2022/02/26 12:24:05;;;;;;;0.00;0.00;;;13.10;92.60;;;;;;5047003;28;20060;-73
2022/02/26 12:26:47;;;;;;;0.00;0.00;;;13.40;95.00;;;;;;5015742;28;20119;-73
2022/02/26 12:29:28;;;;;;;0.00;0.00;;;13.40;92.40;;;;;;5015596;28;20054;-76
2022/02/26 12:32:05;;;;;;;0.75;0.75;;;13.30;92.10;;;;;;5015221;28;20269;-76
2022/02/26 12:34:35;;;;;;;0.00;0.00;;;13.50;92.70;;;;;;5015186;28;20112;-72
2022/02/26 12:37:07;;;;;;;0.00;0.00;;;13.70;93.30;;;;;;5021809;28;20100;-76
2022/02/26 12:39:37;;;;;;;0.00;0.00;;;13.90;92.30;;;;;;5034992;28;20029;-76
2022/02/26 12:42:03;;;;;;;0.00;0.00;;;13.90;93.50;;;;;;5035062;28;20437;-76
2022/02/26 12:44:29;;;;;;;0.00;0.00;;;14.00;93.00;;;;;;5034917;28;20057;-76
2022/02/26 12:46:56;;;;;;;0.00;0.00;;;14.00;92.30;;;;;;5034850;28;20029;-73
2022/02/26 12:49:23;;;;;;;0.00;0.00;;;14.00;91.30;;;;;;5034477;28;20052;-73
2022/02/26 12:51:52;;;;;;;0.43;0.43;;;13.90;89.70;;;;;;5034491;28;20060;-74
2022/02/26 12:54:28;;;;;;;0.00;0.00;;;13.90;90.60;;;;;;5033905;28;20037;-75
2022/02/26 12:56:54;;;;;;;0.15;0.15;;;13.90;89.30;;;;;;5034767;28;20022;-76